sensor_id;sensor_type;location;lat;lon;timestamp;P1;durP1;ratioP1;P2;durP2;ratioP2
20114;SDS011;10218;42.874;25.320;2023-05-07T00:01:40;19.90;;;11.23;;
20114;SDS011;10218;42.874;25.320;2023-05-07T00:04:07;19.60;;;11.27;;
20114;SDS011;10218;42.874;25.320;2023-05-07T00:06:34;16.97;;;11.10;;
20114;SDS011;10218;42.874;25.320;2023-05-07T00:09:02;15.87;;;11.23;;
20114;SDS011;10218;42.874;25.320;2023-05-07T00:11:32;15.07;;;10.90;;
20114;SDS011;10218;42.874;25.320;2023-05-07T00:14:00;18.73;;;11.03;;
20114;SDS011;10218;42.874;25.320;2023-05-07T00:16:27;18.77;;;10.90;;
20114;SDS011;10218;42.874;25.320;2023-05-07T00:18:54;15.07;;;10.40;;
20114;SDS011;10218;42.874;25.320;2023-05-07T00:21:21;14.50;;;10.07;;
20114;SDS011;10218;42.874;25.320;2023-05-07T00:23:48;12.70;;;9.90;;
20114;SDS011;10218;42.874;25.320;2023-05-07T00:26:16;13.13;;;10.17;;
20114;SDS011;10218;42.874;25.320;2023-05-07T00:28:44;16.27;;;9.63;;
20114;SDS011;10218;42.874;25.320;2023-05-07T00:31:11;13.33;;;9.53;;
20114;SDS011;10218;42.874;25.320;2023-05-07T00:33:39;17.63;;;10.27;;
20114;SDS011;10218;42.874;25.320;2023-05-07T00:36:06;12.90;;;10.07;;
20114;SDS011;10218;42.874;25.320;2023-05-07T00:38:33;18.40;;;10.30;;
20114;SDS011;10218;42.874;25.320;2023-05-07T00:41:00;15.00;;;10.10;;
20114;SDS011;10218;42.874;25.320;2023-05-07T00:43:29;14.30;;;10.10;;
20114;SDS011;10218;42.874;25.320;2023-05-07T00:45:56;13.23;;;10.70;;
20114;SDS011;10218;42.874;25.320;2023-05-07T00:48:23;14.13;;;10.23;;
20114;SDS011;10218;42.874;25.320;2023-05-07T00:50:52;14.70;;;11.03;;
20114;SDS011;10218;42.874;25.320;2023-05-07T00:53:19;15.13;;;10.87;;
20114;SDS011;10218;42.874;25.320;2023-05-07T00:55:47;14.93;;;10.97;;
20114;SDS011;10218;42.874;25.320;2023-05-07T00:58:14;15.07;;;10.90;;
20114;SDS011;10218;42.874;25.320;2023-05-07T01:00:42;13.87;;;10.27;;
20114;SDS011;10218;42.874;25.320;2023-05-07T01:03:09;14.73;;;10.33;;
20114;SDS011;10218;42.874;25.320;2023-05-07T01:05:36;14.43;;;10.23;;
20114;SDS011;10218;42.874;25.320;2023-05-07T01:08:03;15.00;;;10.50;;
20114;SDS011;10218;42.874;25.320;2023-05-07T01:10:32;16.43;;;10.30;;
20114;SDS011;10218;42.874;25.320;2023-05-07T01:12:59;16.40;;;10.20;;
20114;SDS011;10218;42.874;25.320;2023-05-07T01:15:27;14.10;;;9.83;;
20114;SDS011;10218;42.874;25.320;2023-05-07T01:17:54;15.77;;;10.67;;
20114;SDS011;10218;42.874;25.320;2023-05-07T01:20:23;16.37;;;10.40;;
20114;SDS011;10218;42.874;25.320;2023-05-07T01:22:52;15.73;;;10.20;;
20114;SDS011;10218;42.874;25.320;2023-05-07T01:25:20;12.67;;;9.57;;
20114;SDS011;10218;42.874;25.320;2023-05-07T01:27:48;16.77;;;10.40;;
20114;SDS011;10218;42.874;25.320;2023-05-07T01:30:15;13.33;;;9.90;;
20114;SDS011;10218;42.874;25.320;2023-05-07T01:32:48;17.70;;;10.57;;
20114;SDS011;10218;42.874;25.320;2023-05-07T01:35:20;12.33;;;9.90;;
20114;SDS011;10218;42.874;25.320;2023-05-07T01:37:51;11.53;;;9.70;;
20114;SDS011;10218;42.874;25.320;2023-05-07T01:40:19;14.27;;;9.70;;
20114;SDS011;10218;42.874;25.320;2023-05-07T01:42:47;15.57;;;10.53;;
20114;SDS011;10218;42.874;25.320;2023-05-07T01:45:17;12.53;;;9.90;;
20114;SDS011;10218;42.874;25.320;2023-05-07T01:47:44;15.07;;;10.10;;
20114;SDS011;10218;42.874;25.320;2023-05-07T01:50:12;19.57;;;10.13;;
20114;SDS011;10218;42.874;25.320;2023-05-07T01:52:42;13.73;;;10.13;;
20114;SDS011;10218;42.874;25.320;2023-05-07T01:55:09;15.80;;;10.00;;
20114;SDS011;10218;42.874;25.320;2023-05-07T01:57:37;17.43;;;10.90;;
20114;SDS011;10218;42.874;25.320;2023-05-07T02:00:05;13.50;;;9.70;;
20114;SDS011;10218;42.874;25.320;2023-05-07T02:02:40;17.93;;;11.13;;
20114;SDS011;10218;42.874;25.320;2023-05-07T02:05:10;17.07;;;10.27;;
20114;SDS011;10218;42.874;25.320;2023-05-07T02:07:38;14.17;;;10.10;;
20114;SDS011;10218;42.874;25.320;2023-05-07T02:10:05;17.17;;;10.73;;
20114;SDS011;10218;42.874;25.320;2023-05-07T02:12:33;14.17;;;9.83;;
20114;SDS011;10218;42.874;25.320;2023-05-07T02:15:00;13.30;;;9.60;;
20114;SDS011;10218;42.874;25.320;2023-05-07T02:17:27;16.73;;;10.77;;
20114;SDS011;10218;42.874;25.320;2023-05-07T02:19:54;15.27;;;10.37;;
20114;SDS011;10218;42.874;25.320;2023-05-07T02:22:21;17.93;;;10.10;;
20114;SDS011;10218;42.874;25.320;2023-05-07T02:24:49;13.97;;;9.93;;
20114;SDS011;10218;42.874;25.320;2023-05-07T02:27:15;16.20;;;11.30;;
20114;SDS011;10218;42.874;25.320;2023-05-07T02:29:43;14.03;;;10.90;;
20114;SDS011;10218;42.874;25.320;2023-05-07T02:32:10;19.10;;;11.67;;
20114;SDS011;10218;42.874;25.320;2023-05-07T02:34:37;14.70;;;10.67;;
20114;SDS011;10218;42.874;25.320;2023-05-07T02:37:04;15.80;;;10.80;;
20114;SDS011;10218;42.874;25.320;2023-05-07T02:39:31;13.40;;;10.03;;
20114;SDS011;10218;42.874;25.320;2023-05-07T02:41:58;13.97;;;9.80;;
20114;SDS011;10218;42.874;25.320;2023-05-07T02:44:25;19.27;;;10.13;;
20114;SDS011;10218;42.874;25.320;2023-05-07T02:46:53;13.53;;;9.73;;
20114;SDS011;10218;42.874;25.320;2023-05-07T02:49:20;20.90;;;9.23;;
20114;SDS011;10218;42.874;25.320;2023-05-07T02:51:47;18.50;;;10.23;;
20114;SDS011;10218;42.874;25.320;2023-05-07T02:54:15;12.77;;;10.70;;
20114;SDS011;10218;42.874;25.320;2023-05-07T02:56:44;15.30;;;11.00;;
20114;SDS011;10218;42.874;25.320;2023-05-07T02:59:11;17.13;;;10.47;;
20114;SDS011;10218;42.874;25.320;2023-05-07T03:01:38;19.50;;;10.27;;
20114;SDS011;10218;42.874;25.320;2023-05-07T03:04:06;12.83;;;10.43;;
20114;SDS011;10218;42.874;25.320;2023-05-07T03:06:33;13.30;;;9.73;;
20114;SDS011;10218;42.874;25.320;2023-05-07T03:09:00;17.30;;;10.90;;
20114;SDS011;10218;42.874;25.320;2023-05-07T03:11:27;21.97;;;10.27;;
20114;SDS011;10218;42.874;25.320;2023-05-07T03:13:54;18.80;;;10.33;;
20114;SDS011;10218;42.874;25.320;2023-05-07T03:16:21;13.40;;;10.47;;
20114;SDS011;10218;42.874;25.320;2023-05-07T03:18:49;17.47;;;10.50;;
20114;SDS011;10218;42.874;25.320;2023-05-07T03:21:16;20.43;;;9.23;;
20114;SDS011;10218;42.874;25.320;2023-05-07T03:23:43;17.03;;;9.80;;
20114;SDS011;10218;42.874;25.320;2023-05-07T03:26:10;14.80;;;10.20;;
20114;SDS011;10218;42.874;25.320;2023-05-07T03:28:37;11.73;;;9.53;;
20114;SDS011;10218;42.874;25.320;2023-05-07T03:31:05;15.00;;;10.07;;
20114;SDS011;10218;42.874;25.320;2023-05-07T03:33:33;18.13;;;9.90;;
20114;SDS011;10218;42.874;25.320;2023-05-07T03:36:01;12.57;;;9.43;;
20114;SDS011;10218;42.874;25.320;2023-05-07T03:38:29;16.63;;;10.40;;
20114;SDS011;10218;42.874;25.320;2023-05-07T03:40:56;17.20;;;10.00;;
20114;SDS011;10218;42.874;25.320;2023-05-07T03:43:23;15.70;;;10.23;;
20114;SDS011;10218;42.874;25.320;2023-05-07T03:45:51;13.77;;;10.03;;
20114;SDS011;10218;42.874;25.320;2023-05-07T03:48:18;12.77;;;10.07;;
20114;SDS011;10218;42.874;25.320;2023-05-07T03:50:45;16.30;;;10.03;;
20114;SDS011;10218;42.874;25.320;2023-05-07T03:53:14;17.97;;;10.90;;
20114;SDS011;10218;42.874;25.320;2023-05-07T03:55:41;15.73;;;10.70;;
20114;SDS011;10218;42.874;25.320;2023-05-07T03:58:08;16.87;;;10.37;;
20114;SDS011;10218;42.874;25.320;2023-05-07T04:00:36;24.70;;;9.93;;
20114;SDS011;10218;42.874;25.320;2023-05-07T04:03:07;15.93;;;9.97;;
20114;SDS011;10218;42.874;25.320;2023-05-07T04:05:35;15.70;;;9.80;;
20114;SDS011;10218;42.874;25.320;2023-05-07T04:08:01;18.23;;;9.77;;
20114;SDS011;10218;42.874;25.320;2023-05-07T04:10:29;15.20;;;9.40;;
20114;SDS011;10218;42.874;25.320;2023-05-07T04:12:57;14.17;;;9.50;;
20114;SDS011;10218;42.874;25.320;2023-05-07T04:15:24;15.27;;;8.83;;
20114;SDS011;10218;42.874;25.320;2023-05-07T04:17:51;13.03;;;9.13;;
20114;SDS011;10218;42.874;25.320;2023-05-07T04:20:19;18.80;;;9.00;;
20114;SDS011;10218;42.874;25.320;2023-05-07T04:22:47;11.37;;;9.07;;
20114;SDS011;10218;42.874;25.320;2023-05-07T04:25:15;11.37;;;9.20;;
20114;SDS011;10218;42.874;25.320;2023-05-07T04:27:43;17.27;;;9.33;;
20114;SDS011;10218;42.874;25.320;2023-05-07T04:30:11;12.57;;;9.00;;
20114;SDS011;10218;42.874;25.320;2023-05-07T04:32:39;19.37;;;9.30;;
20114;SDS011;10218;42.874;25.320;2023-05-07T04:35:06;15.67;;;8.47;;
20114;SDS011;10218;42.874;25.320;2023-05-07T04:37:34;17.50;;;8.33;;
20114;SDS011;10218;42.874;25.320;2023-05-07T04:40:02;10.83;;;8.07;;
20114;SDS011;10218;42.874;25.320;2023-05-07T04:42:29;13.30;;;8.40;;
20114;SDS011;10218;42.874;25.320;2023-05-07T04:44:58;12.23;;;7.93;;
20114;SDS011;10218;42.874;25.320;2023-05-07T04:47:25;12.53;;;8.33;;
20114;SDS011;10218;42.874;25.320;2023-05-07T04:49:53;10.57;;;7.33;;
20114;SDS011;10218;42.874;25.320;2023-05-07T04:52:20;13.33;;;7.80;;
20114;SDS011;10218;42.874;25.320;2023-05-07T04:54:47;13.40;;;8.63;;
20114;SDS011;10218;42.874;25.320;2023-05-07T04:57:14;18.73;;;8.07;;
20114;SDS011;10218;42.874;25.320;2023-05-07T04:59:43;12.40;;;7.63;;
20114;SDS011;10218;42.874;25.320;2023-05-07T05:02:11;14.90;;;7.20;;
20114;SDS011;10218;42.874;25.320;2023-05-07T05:04:38;11.33;;;7.70;;
20114;SDS011;10218;42.874;25.320;2023-05-07T05:07:06;11.37;;;7.30;;
20114;SDS011;10218;42.874;25.320;2023-05-07T05:09:33;12.60;;;7.97;;
20114;SDS011;10218;42.874;25.320;2023-05-07T05:12:00;12.17;;;7.43;;
20114;SDS011;10218;42.874;25.320;2023-05-07T05:14:27;13.20;;;7.43;;
20114;SDS011;10218;42.874;25.320;2023-05-07T05:16:55;10.20;;;7.03;;
20114;SDS011;10218;42.874;25.320;2023-05-07T05:19:22;10.07;;;6.90;;
20114;SDS011;10218;42.874;25.320;2023-05-07T05:21:49;11.03;;;6.87;;
20114;SDS011;10218;42.874;25.320;2023-05-07T05:24:16;10.93;;;7.10;;
20114;SDS011;10218;42.874;25.320;2023-05-07T05:26:44;11.93;;;8.17;;
20114;SDS011;10218;42.874;25.320;2023-05-07T05:29:11;10.07;;;6.77;;
20114;SDS011;10218;42.874;25.320;2023-05-07T05:31:39;11.63;;;7.30;;
20114;SDS011;10218;42.874;25.320;2023-05-07T05:34:08;15.77;;;7.57;;
20114;SDS011;10218;42.874;25.320;2023-05-07T05:36:35;14.07;;;8.20;;
20114;SDS011;10218;42.874;25.320;2023-05-07T05:39:03;12.33;;;7.10;;
20114;SDS011;10218;42.874;25.320;2023-05-07T05:41:30;12.50;;;7.17;;
20114;SDS011;10218;42.874;25.320;2023-05-07T05:43:57;8.87;;;6.77;;
20114;SDS011;10218;42.874;25.320;2023-05-07T05:46:25;12.33;;;5.63;;
20114;SDS011;10218;42.874;25.320;2023-05-07T05:48:52;7.37;;;6.00;;
20114;SDS011;10218;42.874;25.320;2023-05-07T05:51:20;9.90;;;6.03;;
20114;SDS011;10218;42.874;25.320;2023-05-07T05:53:49;8.87;;;5.60;;
20114;SDS011;10218;42.874;25.320;2023-05-07T05:56:16;7.27;;;5.77;;
20114;SDS011;10218;42.874;25.320;2023-05-07T05:58:43;7.40;;;5.93;;
20114;SDS011;10218;42.874;25.320;2023-05-07T06:01:10;9.47;;;5.20;;
20114;SDS011;10218;42.874;25.320;2023-05-07T06:03:39;7.33;;;5.47;;
20114;SDS011;10218;42.874;25.320;2023-05-07T06:06:06;8.53;;;5.80;;
20114;SDS011;10218;42.874;25.320;2023-05-07T06:08:33;7.50;;;5.60;;
20114;SDS011;10218;42.874;25.320;2023-05-07T06:11:02;9.70;;;5.77;;
20114;SDS011;10218;42.874;25.320;2023-05-07T06:13:30;13.63;;;6.17;;
20114;SDS011;10218;42.874;25.320;2023-05-07T06:15:57;7.57;;;6.13;;
20114;SDS011;10218;42.874;25.320;2023-05-07T06:18:24;9.37;;;5.30;;
20114;SDS011;10218;42.874;25.320;2023-05-07T06:20:51;10.17;;;6.30;;
20114;SDS011;10218;42.874;25.320;2023-05-07T06:23:21;13.70;;;5.20;;
20114;SDS011;10218;42.874;25.320;2023-05-07T06:25:49;7.27;;;5.00;;
20114;SDS011;10218;42.874;25.320;2023-05-07T06:28:17;6.70;;;4.50;;
20114;SDS011;10218;42.874;25.320;2023-05-07T06:30:45;7.20;;;4.07;;
20114;SDS011;10218;42.874;25.320;2023-05-07T06:33:13;5.77;;;4.13;;
20114;SDS011;10218;42.874;25.320;2023-05-07T06:35:40;6.30;;;3.50;;
20114;SDS011;10218;42.874;25.320;2023-05-07T06:38:07;5.40;;;3.00;;
20114;SDS011;10218;42.874;25.320;2023-05-07T06:40:35;4.03;;;3.17;;
20114;SDS011;10218;42.874;25.320;2023-05-07T06:43:03;4.97;;;3.30;;
20114;SDS011;10218;42.874;25.320;2023-05-07T06:45:32;7.83;;;3.87;;
20114;SDS011;10218;42.874;25.320;2023-05-07T06:48:00;8.33;;;3.07;;
20114;SDS011;10218;42.874;25.320;2023-05-07T06:50:28;6.90;;;3.70;;
20114;SDS011;10218;42.874;25.320;2023-05-07T06:52:55;5.40;;;3.10;;
20114;SDS011;10218;42.874;25.320;2023-05-07T06:55:22;4.83;;;2.90;;
20114;SDS011;10218;42.874;25.320;2023-05-07T06:57:49;7.57;;;2.70;;
20114;SDS011;10218;42.874;25.320;2023-05-07T07:00:17;4.80;;;3.10;;
20114;SDS011;10218;42.874;25.320;2023-05-07T07:02:45;4.27;;;2.80;;
20114;SDS011;10218;42.874;25.320;2023-05-07T07:05:13;6.00;;;3.00;;
20114;SDS011;10218;42.874;25.320;2023-05-07T07:07:40;3.60;;;3.20;;
20114;SDS011;10218;42.874;25.320;2023-05-07T07:10:08;5.13;;;2.63;;
20114;SDS011;10218;42.874;25.320;2023-05-07T07:12:36;8.40;;;3.17;;
20114;SDS011;10218;42.874;25.320;2023-05-07T07:15:03;8.93;;;2.90;;
20114;SDS011;10218;42.874;25.320;2023-05-07T07:17:31;5.73;;;3.00;;
20114;SDS011;10218;42.874;25.320;2023-05-07T07:19:58;5.50;;;2.80;;
20114;SDS011;10218;42.874;25.320;2023-05-07T07:22:25;3.17;;;2.43;;
20114;SDS011;10218;42.874;25.320;2023-05-07T07:24:52;6.00;;;2.60;;
20114;SDS011;10218;42.874;25.320;2023-05-07T07:27:19;5.93;;;2.70;;
20114;SDS011;10218;42.874;25.320;2023-05-07T07:29:46;4.13;;;2.73;;
20114;SDS011;10218;42.874;25.320;2023-05-07T07:32:14;4.83;;;2.67;;
20114;SDS011;10218;42.874;25.320;2023-05-07T07:34:41;7.23;;;2.63;;
20114;SDS011;10218;42.874;25.320;2023-05-07T07:37:09;2.50;;;2.30;;
20114;SDS011;10218;42.874;25.320;2023-05-07T07:39:36;4.83;;;2.40;;
20114;SDS011;10218;42.874;25.320;2023-05-07T07:42:04;6.70;;;2.77;;
20114;SDS011;10218;42.874;25.320;2023-05-07T07:44:32;4.40;;;2.47;;
20114;SDS011;10218;42.874;25.320;2023-05-07T07:46:59;5.37;;;2.70;;
20114;SDS011;10218;42.874;25.320;2023-05-07T07:49:27;3.33;;;2.17;;
20114;SDS011;10218;42.874;25.320;2023-05-07T07:51:54;4.20;;;2.00;;
20114;SDS011;10218;42.874;25.320;2023-05-07T07:54:23;4.67;;;2.10;;
20114;SDS011;10218;42.874;25.320;2023-05-07T07:56:51;4.70;;;2.17;;
20114;SDS011;10218;42.874;25.320;2023-05-07T07:59:19;2.70;;;2.13;;
20114;SDS011;10218;42.874;25.320;2023-05-07T08:01:48;6.70;;;1.97;;
20114;SDS011;10218;42.874;25.320;2023-05-07T08:04:18;5.20;;;2.00;;
20114;SDS011;10218;42.874;25.320;2023-05-07T08:06:45;5.63;;;2.00;;
20114;SDS011;10218;42.874;25.320;2023-05-07T08:09:13;2.37;;;1.90;;
20114;SDS011;10218;42.874;25.320;2023-05-07T08:11:40;4.93;;;1.93;;
20114;SDS011;10218;42.874;25.320;2023-05-07T08:14:08;4.60;;;2.10;;
20114;SDS011;10218;42.874;25.320;2023-05-07T08:16:35;4.03;;;2.00;;
20114;SDS011;10218;42.874;25.320;2023-05-07T08:19:03;5.70;;;2.53;;
20114;SDS011;10218;42.874;25.320;2023-05-07T08:21:30;6.03;;;2.33;;
20114;SDS011;10218;42.874;25.320;2023-05-07T08:23:59;5.43;;;2.27;;
20114;SDS011;10218;42.874;25.320;2023-05-07T08:26:28;3.80;;;2.40;;
20114;SDS011;10218;42.874;25.320;2023-05-07T08:28:55;4.10;;;2.20;;
20114;SDS011;10218;42.874;25.320;2023-05-07T08:31:23;4.37;;;2.30;;
20114;SDS011;10218;42.874;25.320;2023-05-07T08:33:50;9.20;;;2.73;;
20114;SDS011;10218;42.874;25.320;2023-05-07T08:36:17;3.70;;;2.33;;
20114;SDS011;10218;42.874;25.320;2023-05-07T08:38:45;5.00;;;3.23;;
20114;SDS011;10218;42.874;25.320;2023-05-07T08:41:13;4.40;;;2.63;;
20114;SDS011;10218;42.874;25.320;2023-05-07T08:43:41;7.20;;;2.47;;
20114;SDS011;10218;42.874;25.320;2023-05-07T08:46:09;3.20;;;2.40;;
20114;SDS011;10218;42.874;25.320;2023-05-07T08:48:38;4.87;;;2.50;;
20114;SDS011;10218;42.874;25.320;2023-05-07T08:51:06;5.50;;;2.47;;
20114;SDS011;10218;42.874;25.320;2023-05-07T08:53:33;4.90;;;2.70;;
20114;SDS011;10218;42.874;25.320;2023-05-07T08:56:02;6.50;;;2.80;;
20114;SDS011;10218;42.874;25.320;2023-05-07T08:58:30;83.23;;;15.67;;
20114;SDS011;10218;42.874;25.320;2023-05-07T09:00:57;142.37;;;28.07;;
20114;SDS011;10218;42.874;25.320;2023-05-07T09:03:27;179.03;;;35.20;;
20114;SDS011;10218;42.874;25.320;2023-05-07T09:05:54;39.17;;;9.30;;
20114;SDS011;10218;42.874;25.320;2023-05-07T09:08:24;19.03;;;5.17;;
20114;SDS011;10218;42.874;25.320;2023-05-07T09:10:53;11.13;;;3.60;;
20114;SDS011;10218;42.874;25.320;2023-05-07T09:13:21;10.10;;;3.60;;
20114;SDS011;10218;42.874;25.320;2023-05-07T09:15:49;55.80;;;11.47;;
20114;SDS011;10218;42.874;25.320;2023-05-07T09:18:16;8.73;;;3.10;;
20114;SDS011;10218;42.874;25.320;2023-05-07T09:20:44;15.30;;;4.57;;
20114;SDS011;10218;42.874;25.320;2023-05-07T09:23:11;14.03;;;6.30;;
20114;SDS011;10218;42.874;25.320;2023-05-07T09:25:39;13.50;;;4.13;;
20114;SDS011;10218;42.874;25.320;2023-05-07T09:28:06;55.40;;;12.23;;
20114;SDS011;10218;42.874;25.320;2023-05-07T09:30:34;61.97;;;12.77;;
20114;SDS011;10218;42.874;25.320;2023-05-07T09:33:03;33.37;;;7.17;;
20114;SDS011;10218;42.874;25.320;2023-05-07T09:35:31;4.87;;;2.50;;
20114;SDS011;10218;42.874;25.320;2023-05-07T09:38:00;4.03;;;2.30;;
20114;SDS011;10218;42.874;25.320;2023-05-07T09:40:30;8.13;;;2.40;;
20114;SDS011;10218;42.874;25.320;2023-05-07T09:43:08;3.73;;;2.50;;
20114;SDS011;10218;42.874;25.320;2023-05-07T09:45:40;10.37;;;2.50;;
20114;SDS011;10218;42.874;25.320;2023-05-07T09:48:08;4.20;;;2.30;;
20114;SDS011;10218;42.874;25.320;2023-05-07T09:50:40;3.97;;;2.47;;
20114;SDS011;10218;42.874;25.320;2023-05-07T09:53:18;5.60;;;2.57;;
20114;SDS011;10218;42.874;25.320;2023-05-07T09:55:45;4.73;;;2.97;;
20114;SDS011;10218;42.874;25.320;2023-05-07T09:58:13;4.00;;;2.70;;
20114;SDS011;10218;42.874;25.320;2023-05-07T10:00:43;5.93;;;2.67;;
20114;SDS011;10218;42.874;25.320;2023-05-07T10:03:12;5.87;;;2.40;;
20114;SDS011;10218;42.874;25.320;2023-05-07T10:05:41;6.60;;;2.50;;
20114;SDS011;10218;42.874;25.320;2023-05-07T10:08:11;4.00;;;2.67;;
20114;SDS011;10218;42.874;25.320;2023-05-07T10:10:39;4.20;;;2.30;;
20114;SDS011;10218;42.874;25.320;2023-05-07T10:13:08;5.07;;;2.83;;
20114;SDS011;10218;42.874;25.320;2023-05-07T10:15:37;4.20;;;2.40;;
20114;SDS011;10218;42.874;25.320;2023-05-07T10:18:05;4.80;;;2.63;;
20114;SDS011;10218;42.874;25.320;2023-05-07T10:20:33;5.97;;;2.50;;
20114;SDS011;10218;42.874;25.320;2023-05-07T10:23:04;4.93;;;2.60;;
20114;SDS011;10218;42.874;25.320;2023-05-07T10:25:33;6.13;;;2.93;;
20114;SDS011;10218;42.874;25.320;2023-05-07T10:28:03;7.57;;;2.50;;
20114;SDS011;10218;42.874;25.320;2023-05-07T10:33:12;4.87;;;2.83;;
20114;SDS011;10218;42.874;25.320;2023-05-07T10:35:42;4.77;;;3.10;;
20114;SDS011;10218;42.874;25.320;2023-05-07T10:38:11;4.37;;;2.60;;
20114;SDS011;10218;42.874;25.320;2023-05-07T10:40:40;3.13;;;2.40;;
20114;SDS011;10218;42.874;25.320;2023-05-07T10:43:08;7.67;;;2.17;;
20114;SDS011;10218;42.874;25.320;2023-05-07T10:45:36;5.57;;;2.40;;
20114;SDS011;10218;42.874;25.320;2023-05-07T10:50:45;2.77;;;2.27;;
20114;SDS011;10218;42.874;25.320;2023-05-07T10:55:50;3.20;;;2.60;;
20114;SDS011;10218;42.874;25.320;2023-05-07T11:00:57;4.43;;;2.30;;
20114;SDS011;10218;42.874;25.320;2023-05-07T11:03:29;3.67;;;2.53;;
20114;SDS011;10218;42.874;25.320;2023-05-07T11:06:13;4.80;;;2.40;;
20114;SDS011;10218;42.874;25.320;2023-05-07T11:08:57;3.57;;;2.50;;
20114;SDS011;10218;42.874;25.320;2023-05-07T11:11:44;5.77;;;2.27;;
20114;SDS011;10218;42.874;25.320;2023-05-07T11:17:12;12.20;;;10.13;;
20114;SDS011;10218;42.874;25.320;2023-05-07T11:25:00;4.73;;;4.17;;
20114;SDS011;10218;42.874;25.320;2023-05-07T11:27:33;14.40;;;12.37;;
20114;SDS011;10218;42.874;25.320;2023-05-07T11:30:00;6.60;;;3.93;;
20114;SDS011;10218;42.874;25.320;2023-05-07T11:32:28;14.00;;;12.37;;
20114;SDS011;10218;42.874;25.320;2023-05-07T11:34:58;10.03;;;5.93;;
20114;SDS011;10218;42.874;25.320;2023-05-07T11:37:27;11.20;;;9.23;;
20114;SDS011;10218;42.874;25.320;2023-05-07T11:42:32;5.00;;;2.60;;
20114;SDS011;10218;42.874;25.320;2023-05-07T11:45:01;7.63;;;2.90;;
20114;SDS011;10218;42.874;25.320;2023-05-07T11:47:31;3.80;;;2.60;;
20114;SDS011;10218;42.874;25.320;2023-05-07T11:50:03;28.97;;;22.70;;
20114;SDS011;10218;42.874;25.320;2023-05-07T11:52:35;9.13;;;6.85;;
20114;SDS011;10218;42.874;25.320;2023-05-07T11:55:02;7.25;;;3.85;;
20114;SDS011;10218;42.874;25.320;2023-05-07T11:57:32;9.13;;;7.07;;
20114;SDS011;10218;42.874;25.320;2023-05-07T12:00:00;4.77;;;2.83;;
20114;SDS011;10218;42.874;25.320;2023-05-07T12:02:37;12.52;;;3.30;;
20114;SDS011;10218;42.874;25.320;2023-05-07T12:05:05;12.68;;;9.30;;
20114;SDS011;10218;42.874;25.320;2023-05-07T12:07:35;24.53;;;19.53;;
20114;SDS011;10218;42.874;25.320;2023-05-07T12:10:06;8.07;;;4.40;;
20114;SDS011;10218;42.874;25.320;2023-05-07T12:12:45;5.67;;;3.13;;
20114;SDS011;10218;42.874;25.320;2023-05-07T12:15:15;5.50;;;3.77;;
20114;SDS011;10218;42.874;25.320;2023-05-07T12:17:49;6.23;;;3.97;;
20114;SDS011;10218;42.874;25.320;2023-05-07T12:20:17;7.20;;;4.27;;
20114;SDS011;10218;42.874;25.320;2023-05-07T12:22:44;5.17;;;2.73;;
20114;SDS011;10218;42.874;25.320;2023-05-07T12:25:12;4.47;;;2.63;;
20114;SDS011;10218;42.874;25.320;2023-05-07T12:27:50;9.20;;;5.80;;
20114;SDS011;10218;42.874;25.320;2023-05-07T12:30:18;4.50;;;2.33;;
20114;SDS011;10218;42.874;25.320;2023-05-07T12:32:45;5.75;;;2.62;;
20114;SDS011;10218;42.874;25.320;2023-05-07T12:35:12;4.07;;;2.30;;
20114;SDS011;10218;42.874;25.320;2023-05-07T12:37:40;4.07;;;3.37;;
20114;SDS011;10218;42.874;25.320;2023-05-07T12:40:08;3.87;;;2.65;;
20114;SDS011;10218;42.874;25.320;2023-05-07T12:42:37;8.55;;;2.83;;
20114;SDS011;10218;42.874;25.320;2023-05-07T12:45:16;3.45;;;2.70;;
20114;SDS011;10218;42.874;25.320;2023-05-07T12:47:43;3.00;;;2.30;;
20114;SDS011;10218;42.874;25.320;2023-05-07T12:50:13;4.35;;;2.60;;
20114;SDS011;10218;42.874;25.320;2023-05-07T12:52:41;5.03;;;2.25;;
20114;SDS011;10218;42.874;25.320;2023-05-07T12:55:09;3.85;;;2.65;;
20114;SDS011;10218;42.874;25.320;2023-05-07T12:57:42;6.78;;;4.20;;
20114;SDS011;10218;42.874;25.320;2023-05-07T13:00:10;5.55;;;2.83;;
20114;SDS011;10218;42.874;25.320;2023-05-07T13:02:38;7.35;;;3.60;;
20114;SDS011;10218;42.874;25.320;2023-05-07T13:05:07;7.15;;;2.12;;
20114;SDS011;10218;42.874;25.320;2023-05-07T13:07:35;3.00;;;2.30;;
20114;SDS011;10218;42.874;25.320;2023-05-07T13:10:03;4.28;;;2.35;;
20114;SDS011;10218;42.874;25.320;2023-05-07T13:12:32;4.45;;;2.33;;
20114;SDS011;10218;42.874;25.320;2023-05-07T13:14:59;4.07;;;2.42;;
20114;SDS011;10218;42.874;25.320;2023-05-07T13:17:26;5.80;;;2.58;;
20114;SDS011;10218;42.874;25.320;2023-05-07T13:19:53;4.47;;;2.50;;
20114;SDS011;10218;42.874;25.320;2023-05-07T13:22:20;4.30;;;2.10;;
20114;SDS011;10218;42.874;25.320;2023-05-07T13:24:47;3.05;;;1.90;;
20114;SDS011;10218;42.874;25.320;2023-05-07T13:27:14;3.70;;;2.12;;
20114;SDS011;10218;42.874;25.320;2023-05-07T13:29:42;3.00;;;2.58;;
20114;SDS011;10218;42.874;25.320;2023-05-07T13:32:09;2.90;;;2.10;;
20114;SDS011;10218;42.874;25.320;2023-05-07T13:34:36;2.80;;;2.08;;
20114;SDS011;10218;42.874;25.320;2023-05-07T13:37:03;3.00;;;2.00;;
20114;SDS011;10218;42.874;25.320;2023-05-07T13:39:30;3.62;;;2.00;;
20114;SDS011;10218;42.874;25.320;2023-05-07T13:41:58;5.00;;;2.30;;
20114;SDS011;10218;42.874;25.320;2023-05-07T13:44:25;3.53;;;2.05;;
20114;SDS011;10218;42.874;25.320;2023-05-07T13:46:53;3.45;;;2.30;;
20114;SDS011;10218;42.874;25.320;2023-05-07T13:49:20;4.60;;;2.42;;
20114;SDS011;10218;42.874;25.320;2023-05-07T13:51:47;3.90;;;2.40;;
20114;SDS011;10218;42.874;25.320;2023-05-07T13:54:14;11.02;;;3.75;;
20114;SDS011;10218;42.874;25.320;2023-05-07T13:56:42;17.00;;;4.80;;
20114;SDS011;10218;42.874;25.320;2023-05-07T13:59:09;50.67;;;10.63;;
20114;SDS011;10218;42.874;25.320;2023-05-07T14:01:36;4.05;;;2.35;;
20114;SDS011;10218;42.874;25.320;2023-05-07T14:04:04;25.30;;;5.97;;
20114;SDS011;10218;42.874;25.320;2023-05-07T14:06:31;19.40;;;3.83;;
20114;SDS011;10218;42.874;25.320;2023-05-07T14:08:58;113.10;;;13.23;;
20114;SDS011;10218;42.874;25.320;2023-05-07T14:11:25;291.43;;;29.77;;
20114;SDS011;10218;42.874;25.320;2023-05-07T14:13:52;352.27;;;49.42;;
20114;SDS011;10218;42.874;25.320;2023-05-07T14:16:19;36.83;;;5.60;;
20114;SDS011;10218;42.874;25.320;2023-05-07T14:18:46;320.50;;;21.50;;
20114;SDS011;10218;42.874;25.320;2023-05-07T14:21:13;9.07;;;2.90;;
20114;SDS011;10218;42.874;25.320;2023-05-07T14:23:40;4.87;;;2.57;;
20114;SDS011;10218;42.874;25.320;2023-05-07T14:26:08;5.32;;;2.67;;
20114;SDS011;10218;42.874;25.320;2023-05-07T14:28:35;6.20;;;2.17;;
20114;SDS011;10218;42.874;25.320;2023-05-07T14:31:02;12.23;;;3.03;;
20114;SDS011;10218;42.874;25.320;2023-05-07T14:33:29;7.17;;;2.60;;
20114;SDS011;10218;42.874;25.320;2023-05-07T14:35:56;35.05;;;4.50;;
20114;SDS011;10218;42.874;25.320;2023-05-07T14:38:23;26.90;;;4.05;;
20114;SDS011;10218;42.874;25.320;2023-05-07T14:40:50;5.70;;;2.67;;
20114;SDS011;10218;42.874;25.320;2023-05-07T14:43:18;3.85;;;3.00;;
20114;SDS011;10218;42.874;25.320;2023-05-07T14:45:47;7.43;;;2.40;;
20114;SDS011;10218;42.874;25.320;2023-05-07T14:48:14;3.03;;;2.03;;
20114;SDS011;10218;42.874;25.320;2023-05-07T14:50:41;5.63;;;2.60;;